Time;durP1;ratioP1;P1;durP2;ratioP2;P2;SDS_P1;SDS_P2;PMS_P1;PMS_P2;Temp;Humidity;BMP_temperature;BMP_pressure;BME280_temperature;BME280_humidity;BME280_pressure;Samples;Min_cycle;Max_cycle;Signal;HPM_P1;HPM_P2
2023/07/28 00:00:19;;;;;;;4.43;2.15;;;;;;;;;;5085803;28;20113;-63
2023/07/28 00:02:48;;;;;;;7.03;2.80;;;;;;;;;;5086839;28;20474;-60
2023/07/28 00:05:17;;;;;;;4.63;1.98;;;;;;;;;;5086917;28;20059;-60
2023/07/28 00:07:45;;;;;;;3.33;1.80;;;;;;;;;;5080964;28;20052;-61
2023/07/28 00:10:14;;;;;;;5.82;2.00;;;;;;;;;;5083612;28;20047;-63
2023/07/28 00:12:43;;;;;;;8.05;2.47;;;;;;;;;;5085817;28;20080;-60
2023/07/28 00:15:11;;;;;;;4.93;2.00;;;;;;;;;;5085346;28;20064;-64
2023/07/28 00:17:42;;;;;;;4.07;2.25;;;;;;;;;;5085200;28;20386;-61
2023/07/28 00:20:13;;;;;;;2.22;1.52;;;;;;;;;;5084791;28;20107;-61
2023/07/28 00:22:41;;;;;;;4.75;2.15;;;;;;;;;;5082893;28;20048;-61
2023/07/28 00:25:10;;;;;;;3.67;1.95;;;;;;;;;;5084078;28;20093;-64
2023/07/28 00:27:38;;;;;;;4.75;2.13;;;;;;;;;;5084402;28;20051;-60
2023/07/28 00:30:07;;;;;;;3.30;1.90;;;;;;;;;;5084830;28;20412;-60
2023/07/28 00:32:35;;;;;;;3.88;1.77;;;;;;;;;;5082842;28;20128;-61
2023/07/28 00:35:04;;;;;;;3.80;1.98;;;;;;;;;;5084289;28;20075;-60
2023/07/28 00:37:34;;;;;;;3.70;2.00;;;;;;;;;;5085474;28;20070;-62
2023/07/28 00:40:02;;;;;;;2.90;1.65;;;;;;;;;;5080940;28;20056;-63
2023/07/28 00:42:31;;;;;;;3.63;2.08;;;;;;;;;;5084994;28;20052;-63
2023/07/28 00:45:00;;;;;;;5.22;2.20;;;;;;;;;;5086079;28;20105;-60
2023/07/28 00:47:28;;;;;;;4.28;2.10;;;;;;;;;;5083500;28;20044;-60
2023/07/28 00:49:57;;;;;;;3.92;2.15;;;;;;;;;;5084896;28;20046;-61
2023/07/28 00:52:25;;;;;;;4.13;1.90;;;;;;;;;;5080479;28;20075;-60
2023/07/28 00:54:55;;;;;;;3.67;1.90;;;;;;;;;;5082435;28;20048;-60
2023/07/28 00:57:23;;;;;;;3.45;2.08;;;;;;;;;;5085452;28;20083;-60
2023/07/28 00:59:52;;;;;;;4.13;2.03;;;;;;;;;;5084729;28;20113;-60
2023/07/28 01:02:21;;;;;;;4.63;2.08;;;;;;;;;;5076432;28;20078;-62
2023/07/28 01:04:49;;;;;;;3.15;2.00;;;;;;;;;;5098592;22;20934;-62
2023/07/28 01:07:22;;;;;;;3.15;1.90;;;;;;;;;;5072207;28;20140;-60
2023/07/28 01:09:54;;;;;;;2.22;1.63;;;;;;;;;;5075166;28;20052;-60
2023/07/28 01:12:25;;;;;;;2.83;1.73;;;;;;;;;;5072496;28;20539;-61
2023/07/28 01:14:53;;;;;;;5.18;1.90;;;;;;;;;;5068252;28;20045;-62
2023/07/28 01:17:23;;;;;;;4.20;2.28;;;;;;;;;;5070284;28;20132;-62
2023/07/28 01:19:52;;;;;;;5.35;2.35;;;;;;;;;;5073470;28;20049;-60
2023/07/28 01:22:39;;;;;;;3.58;1.75;;;;;;;;;;5073732;28;20146;-61
2023/07/28 01:25:08;;;;;;;3.60;2.10;;;;;;;;;;5092816;27;20063;-60
2023/07/28 01:27:42;;;;;;;6.47;2.00;;;;;;;;;;5118083;27;20152;-61
2023/07/28 01:30:11;;;;;;;3.65;1.90;;;;;;;;;;5107898;27;20043;-60
2023/07/28 01:38:26;;;;;;;3.17;1.67;;;;;;;;;;5071419;28;20036;-61
2023/07/28 01:40:54;;;;;;;3.63;2.10;;;;;;;;;;5078161;28;20048;-60
2023/07/28 01:43:24;;;;;;;3.20;1.52;;;;;;;;;;5074508;28;20230;-60
2023/07/28 01:45:52;;;;;;;4.47;2.03;;;;;;;;;;5072778;28;20098;-60
2023/07/28 01:48:21;;;;;;;4.13;1.92;;;;;;;;;;5075209;28;20118;-62
2023/07/28 01:50:49;;;;;;;3.70;2.00;;;;;;;;;;5075081;28;20516;-60
2023/07/28 01:53:18;;;;;;;4.15;2.15;;;;;;;;;;5073816;28;20068;-58
2023/07/28 01:55:47;;;;;;;3.35;2.00;;;;;;;;;;5069329;28;20094;-60
2023/07/28 01:58:15;;;;;;;4.15;1.85;;;;;;;;;;5073224;28;20105;-60
2023/07/28 02:00:46;;;;;;;3.85;2.10;;;;;;;;;;5073965;28;20133;-63
2023/07/28 02:03:14;;;;;;;3.72;1.88;;;;;;;;;;5075490;28;20040;-60
2023/07/28 02:05:44;;;;;;;3.05;1.95;;;;;;;;;;5073144;28;20043;-60
2023/07/28 02:08:12;;;;;;;3.17;1.70;;;;;;;;;;5074849;28;20372;-60
2023/07/28 02:10:41;;;;;;;3.15;1.83;;;;;;;;;;5074523;28;20624;-62
2023/07/28 02:13:09;;;;;;;3.50;1.75;;;;;;;;;;5075651;28;20063;-60
2023/07/28 02:15:37;;;;;;;3.42;1.92;;;;;;;;;;5081317;28;20048;-63
2023/07/28 02:18:10;;;;;;;3.53;1.83;;;;;;;;;;5082401;28;20591;-60
2023/07/28 02:20:38;;;;;;;2.55;1.90;;;;;;;;;;5082102;28;20328;-60
2023/07/28 02:23:07;;;;;;;3.55;1.70;;;;;;;;;;5078890;28;20047;-60
2023/07/28 02:25:35;;;;;;;4.18;1.90;;;;;;;;;;5074701;28;20071;-63
2023/07/28 02:28:04;;;;;;;3.28;1.70;;;;;;;;;;5072132;28;20121;-60
2023/07/28 02:30:32;;;;;;;3.75;1.77;;;;;;;;;;5071632;28;20134;-61
2023/07/28 02:33:01;;;;;;;3.80;1.90;;;;;;;;;;5071367;28;20055;-61
2023/07/28 02:35:31;;;;;;;3.28;1.95;;;;;;;;;;5076022;28;20048;-61
2023/07/28 02:38:00;;;;;;;1.90;1.65;;;;;;;;;;5088101;28;20424;-60
2023/07/28 02:40:29;;;;;;;5.75;1.80;;;;;;;;;;5089198;28;20074;-59
2023/07/28 02:42:58;;;;;;;5.57;1.90;;;;;;;;;;5087231;28;20063;-60
2023/07/28 02:45:26;;;;;;;2.90;1.70;;;;;;;;;;5090579;28;20150;-60
2023/07/28 02:47:55;;;;;;;5.75;1.77;;;;;;;;;;5089350;28;20056;-59
2023/07/28 02:50:23;;;;;;;3.75;1.70;;;;;;;;;;5102475;28;20051;-57
2023/07/28 02:52:53;;;;;;;3.90;1.73;;;;;;;;;;5100011;28;20112;-59
2023/07/28 02:55:21;;;;;;;2.50;1.63;;;;;;;;;;5096828;28;20052;-60
2023/07/28 02:57:50;;;;;;;2.60;1.50;;;;;;;;;;5095332;28;20067;-59
2023/07/28 03:00:18;;;;;;;6.80;1.92;;;;;;;;;;5094850;28;20075;-61
2023/07/28 03:02:46;;;;;;;7.13;1.98;;;;;;;;;;5097492;28;20124;-58
2023/07/28 03:05:15;;;;;;;3.53;1.67;;;;;;;;;;5099287;28;20080;-59
2023/07/28 03:07:43;;;;;;;2.85;1.50;;;;;;;;;;5097319;28;20093;-60
2023/07/28 03:10:16;;;;;;;3.38;1.45;;;;;;;;;;5102850;28;20052;-62
2023/07/28 03:12:44;;;;;;;8.07;2.35;;;;;;;;;;5100691;28;20416;-60
2023/07/28 03:15:13;;;;;;;3.30;1.90;;;;;;;;;;5102173;28;20381;-60
2023/07/28 03:17:41;;;;;;;8.00;1.83;;;;;;;;;;5103666;28;20492;-61
2023/07/28 03:20:10;;;;;;;4.78;1.65;;;;;;;;;;5103785;28;20049;-60
2023/07/28 03:22:38;;;;;;;4.07;1.80;;;;;;;;;;5098183;28;20105;-60
2023/07/28 03:25:07;;;;;;;2.45;1.58;;;;;;;;;;5098061;28;20132;-59
2023/07/28 03:27:37;;;;;;;3.40;1.75;;;;;;;;;;5097368;28;20050;-59
2023/07/28 03:30:09;;;;;;;3.00;1.50;;;;;;;;;;5096245;28;20688;-59
2023/07/28 03:32:37;;;;;;;3.65;1.83;;;;;;;;;;5093545;28;20500;-62
2023/07/28 03:35:07;;;;;;;4.30;1.63;;;;;;;;;;5097616;28;20047;-63
2023/07/28 03:37:36;;;;;;;4.50;1.98;;;;;;;;;;5098058;28;20075;-59
2023/07/28 03:40:05;;;;;;;3.95;1.70;;;;;;;;;;5102059;28;20063;-62
2023/07/28 03:42:34;;;;;;;3.55;1.88;;;;;;;;;;5100344;28;20047;-60
2023/07/28 03:45:03;;;;;;;6.00;1.85;;;;;;;;;;5094899;28;20063;-61
2023/07/28 03:47:32;;;;;;;3.15;1.73;;;;;;;;;;5101127;28;20508;-62
2023/07/28 03:50:00;;;;;;;4.30;1.75;;;;;;;;;;5100045;28;20117;-59
2023/07/28 03:52:29;;;;;;;4.05;1.80;;;;;;;;;;5101568;28;20127;-60
2023/07/28 03:55:00;;;;;;;3.95;1.73;;;;;;;;;;5098506;28;20122;-60
2023/07/28 03:57:28;;;;;;;6.43;2.00;;;;;;;;;;5100374;28;20048;-59
2023/07/28 03:59:57;;;;;;;3.60;2.15;;;;;;;;;;5098782;28;20446;-59
2023/07/28 04:02:27;;;;;;;3.50;1.85;;;;;;;;;;5099877;28;20055;-61
2023/07/28 04:04:56;;;;;;;2.70;1.50;;;;;;;;;;5098410;28;20130;-59
2023/07/28 04:07:24;;;;;;;5.40;1.63;;;;;;;;;;5099313;28;20048;-60
2023/07/28 04:09:52;;;;;;;2.95;1.50;;;;;;;;;;5099999;28;20184;-60
2023/07/28 04:12:21;;;;;;;5.05;1.65;;;;;;;;;;5101547;28;20316;-60
2023/07/28 04:14:49;;;;;;;3.40;1.77;;;;;;;;;;5098549;28;20043;-61
2023/07/28 04:17:18;;;;;;;2.20;1.33;;;;;;;;;;5101686;28;20109;-59
2023/07/28 04:19:47;;;;;;;2.72;1.50;;;;;;;;;;5102411;28;20101;-59
2023/07/28 04:22:20;;;;;;;2.60;1.42;;;;;;;;;;5099406;28;20133;-60
2023/07/28 04:24:49;;;;;;;2.28;1.60;;;;;;;;;;5101038;28;20554;-62
2023/07/28 04:27:18;;;;;;;2.85;1.80;;;;;;;;;;5100677;28;20055;-59
2023/07/28 04:29:46;;;;;;;4.47;1.88;;;;;;;;;;5095175;28;20166;-59
2023/07/28 04:32:14;;;;;;;3.30;1.55;;;;;;;;;;5098413;28;20526;-58
2023/07/28 04:34:43;;;;;;;3.33;1.80;;;;;;;;;;5094873;28;20458;-60
2023/07/28 04:37:12;;;;;;;2.58;1.73;;;;;;;;;;5094519;28;20052;-59
2023/07/28 04:39:41;;;;;;;3.53;1.60;;;;;;;;;;5101001;27;20117;-59
2023/07/28 04:42:09;;;;;;;2.67;1.50;;;;;;;;;;5102510;28;20086;-57
2023/07/28 04:44:38;;;;;;;2.97;1.58;;;;;;;;;;5098599;28;20055;-59
2023/07/28 04:47:06;;;;;;;3.65;1.60;;;;;;;;;;5099433;27;20051;-59
2023/07/28 04:49:35;;;;;;;2.40;1.50;;;;;;;;;;5097073;27;20105;-59
2023/07/28 04:52:03;;;;;;;4.88;2.05;;;;;;;;;;5102283;27;20043;-59
2023/07/28 04:54:33;;;;;;;8.13;2.00;;;;;;;;;;5100919;27;20059;-60
2023/07/28 04:57:01;;;;;;;4.40;2.05;;;;;;;;;;5102112;27;20377;-59
2023/07/28 04:59:29;;;;;;;3.60;1.38;;;;;;;;;;5102892;27;20581;-60
2023/07/28 05:01:58;;;;;;;6.57;1.67;;;;;;;;;;5101129;28;20456;-60
2023/07/28 05:04:26;;;;;;;5.80;1.83;;;;;;;;;;5096350;28;20090;-59
2023/07/28 05:06:55;;;;;;;3.65;2.10;;;;;;;;;;5095854;28;20059;-59
2023/07/28 05:09:23;;;;;;;2.63;1.70;;;;;;;;;;5097288;27;20500;-63
2023/07/28 05:11:53;;;;;;;5.03;1.58;;;;;;;;;;5095955;28;20058;-59
2023/07/28 05:14:22;;;;;;;4.80;1.88;;;;;;;;;;5100261;28;20104;-59
2023/07/28 05:16:50;;;;;;;3.15;1.67;;;;;;;;;;5099130;28;20043;-60
2023/07/28 05:19:18;;;;;;;5.78;1.90;;;;;;;;;;5100293;28;20135;-60
2023/07/28 05:21:47;;;;;;;5.60;2.53;;;;;;;;;;5101265;27;20074;-59
2023/07/28 05:24:15;;;;;;;3.55;1.92;;;;;;;;;;5097345;27;20044;-60
2023/07/28 05:26:44;;;;;;;4.07;1.85;;;;;;;;;;5092425;27;20051;-59
2023/07/28 05:29:13;;;;;;;3.00;1.67;;;;;;;;;;5099340;27;20035;-60
2023/07/28 05:31:42;;;;;;;3.97;1.70;;;;;;;;;;5100698;27;20052;-59
2023/07/28 05:34:12;;;;;;;2.53;1.77;;;;;;;;;;5091372;28;20408;-59
2023/07/28 05:36:40;;;;;;;4.28;1.90;;;;;;;;;;5098414;28;20040;-61
2023/07/28 05:39:09;;;;;;;4.13;1.70;;;;;;;;;;5079286;28;20052;-61
2023/07/28 05:41:38;;;;;;;3.13;1.65;;;;;;;;;;5082489;28;21151;-60
2023/07/28 05:44:06;;;;;;;6.28;2.05;;;;;;;;;;5079386;28;20063;-59
2023/07/28 05:46:36;;;;;;;4.07;1.80;;;;;;;;;;5074878;28;20048;-59
2023/07/28 05:49:04;;;;;;;3.03;1.95;;;;;;;;;;5081757;28;20048;-60
2023/07/28 05:51:33;;;;;;;7.05;2.55;;;;;;;;;;5078700;28;20109;-60
2023/07/28 05:54:02;;;;;;;2.90;1.90;;;;;;;;;;5078158;28;20078;-60
2023/07/28 05:56:30;;;;;;;5.43;2.17;;;;;;;;;;5073610;28;20059;-59
2023/07/28 05:58:59;;;;;;;3.28;1.80;;;;;;;;;;5069599;28;20060;-60
2023/07/28 06:01:28;;;;;;;2.75;1.95;;;;;;;;;;5073186;28;20369;-60
2023/07/28 06:03:59;;;;;;;4.13;2.03;;;;;;;;;;5078052;28;20048;-60
2023/07/28 06:06:28;;;;;;;6.40;1.90;;;;;;;;;;5076441;28;20044;-61
2023/07/28 06:08:56;;;;;;;3.15;2.05;;;;;;;;;;5076923;28;20044;-60
2023/07/28 06:11:26;;;;;;;2.90;1.42;;;;;;;;;;5077414;28;20477;-61
2023/07/28 06:13:54;;;;;;;3.42;1.85;;;;;;;;;;5079875;28;20072;-60
2023/07/28 06:16:24;;;;;;;3.45;1.75;;;;;;;;;;5082480;28;20126;-60
2023/07/28 06:18:52;;;;;;;3.63;1.80;;;;;;;;;;5077866;28;20117;-59
2023/07/28 06:21:22;;;;;;;3.58;1.88;;;;;;;;;;5074740;28;20451;-63
2023/07/28 06:23:51;;;;;;;3.78;1.75;;;;;;;;;;5075591;28;20059;-60
2023/07/28 06:26:19;;;;;;;3.83;1.90;;;;;;;;;;5077273;28;20134;-61
2023/07/28 06:28:47;;;;;;;3.05;1.73;;;;;;;;;;5074116;28;20132;-63
2023/07/28 06:31:16;;;;;;;2.90;1.70;;;;;;;;;;5074479;28;20048;-63
2023/07/28 06:33:44;;;;;;;5.07;1.70;;;;;;;;;;5076685;28;20055;-60
2023/07/28 06:36:13;;;;;;;4.60;1.60;;;;;;;;;;5078030;28;20097;-61
2023/07/28 06:38:45;;;;;;;2.50;1.90;;;;;;;;;;5097152;28;20059;-62
2023/07/28 06:41:14;;;;;;;4.97;1.70;;;;;;;;;;5093688;28;20055;-62
2023/07/28 06:43:42;;;;;;;3.70;1.77;;;;;;;;;;5094218;28;20338;-60
2023/07/28 06:46:11;;;;;;;3.67;1.80;;;;;;;;;;5097672;28;20079;-60
2023/07/28 06:48:39;;;;;;;3.10;1.77;;;;;;;;;;5096462;28;20048;-60
2023/07/28 06:51:08;;;;;;;3.60;2.13;;;;;;;;;;5097303;28;20443;-61
2023/07/28 06:53:37;;;;;;;2.83;2.00;;;;;;;;;;5099075;28;20108;-60
2023/07/28 06:56:06;;;;;;;2.53;1.58;;;;;;;;;;5092237;28;20512;-62
2023/07/28 06:58:35;;;;;;;7.88;2.15;;;;;;;;;;5098771;28;20151;-60
2023/07/28 07:01:03;;;;;;;2.95;1.60;;;;;;;;;;5098921;28;20512;-63
2023/07/28 07:03:32;;;;;;;4.45;1.70;;;;;;;;;;5098652;28;20047;-59
2023/07/28 07:06:01;;;;;;;3.40;2.13;;;;;;;;;;5096707;28;20479;-60
2023/07/28 07:08:29;;;;;;;3.83;1.98;;;;;;;;;;5095112;28;20470;-62
2023/07/28 07:10:57;;;;;;;5.47;1.77;;;;;;;;;;5097856;28;20048;-60
2023/07/28 07:13:27;;;;;;;4.40;2.22;;;;;;;;;;5098246;28;20135;-62
2023/07/28 07:15:56;;;;;;;2.60;1.75;;;;;;;;;;5095727;28;20050;-64
2023/07/28 07:18:25;;;;;;;3.00;1.67;;;;;;;;;;5095605;28;20119;-60
2023/07/28 07:20:53;;;;;;;5.72;2.08;;;;;;;;;;5100979;28;20043;-60
2023/07/28 07:23:21;;;;;;;2.67;1.60;;;;;;;;;;5096927;28;20051;-58
2023/07/28 07:25:51;;;;;;;2.58;1.65;;;;;;;;;;5093065;28;20581;-60
2023/07/28 07:28:19;;;;;;;3.72;1.60;;;;;;;;;;5091262;28;20101;-58
2023/07/28 07:30:49;;;;;;;3.70;1.50;;;;;;;;;;5093225;28;20455;-59
2023/07/28 07:33:17;;;;;;;2.42;1.52;;;;;;;;;;5099090;28;20148;-60
2023/07/28 07:35:46;;;;;;;2.28;1.60;;;;;;;;;;5095866;28;20048;-61
2023/07/28 07:38:14;;;;;;;3.28;1.77;;;;;;;;;;5098441;28;20154;-58
2023/07/28 07:40:42;;;;;;;5.18;1.90;;;;;;;;;;5097049;28;20052;-59
2023/07/28 07:43:11;;;;;;;4.10;1.60;;;;;;;;;;5094291;28;20154;-59
2023/07/28 07:45:39;;;;;;;2.45;1.80;;;;;;;;;;5098151;28;20106;-63
2023/07/28 07:48:09;;;;;;;5.82;2.40;;;;;;;;;;5100811;28;20130;-60
2023/07/28 07:50:37;;;;;;;3.70;2.05;;;;;;;;;;5097880;28;20059;-59
2023/07/28 07:53:06;;;;;;;3.58;1.85;;;;;;;;;;5100406;28;20043;-59
2023/07/28 07:55:34;;;;;;;3.72;2.17;;;;;;;;;;5097713;28;20075;-59
2023/07/28 07:58:03;;;;;;;4.20;1.70;;;;;;;;;;5100793;28;20054;-59
2023/07/28 08:00:32;;;;;;;5.65;1.70;;;;;;;;;;5096942;28;20055;-65
2023/07/28 08:03:00;;;;;;;3.60;1.70;;;;;;;;;;5095809;28;20047;-58
2023/07/28 08:05:30;;;;;;;6.15;1.70;;;;;;;;;;5103219;28;20051;-58
2023/07/28 08:07:58;;;;;;;4.15;1.80;;;;;;;;;;5103769;28;20044;-59
2023/07/28 08:10:27;;;;;;;3.83;1.60;;;;;;;;;;5101610;28;20113;-63
2023/07/28 08:12:55;;;;;;;2.83;1.60;;;;;;;;;;5098898;28;20044;-59
2023/07/28 08:15:24;;;;;;;3.35;1.90;;;;;;;;;;5099820;28;20071;-58
2023/07/28 08:17:52;;;;;;;6.47;1.88;;;;;;;;;;5102116;28;20052;-59
2023/07/28 08:20:21;;;;;;;2.90;1.98;;;;;;;;;;5100927;28;20044;-63
2023/07/28 08:22:50;;;;;;;4.18;1.45;;;;;;;;;;5106760;28;20500;-59
2023/07/28 08:25:19;;;;;;;2.63;1.33;;;;;;;;;;5094582;28;20343;-59
2023/07/28 08:27:48;;;;;;;3.22;1.52;;;;;;;;;;5099954;28;20052;-60
2023/07/28 08:30:16;;;;;;;3.33;1.90;;;;;;;;;;5102574;28;20042;-59
2023/07/28 08:32:45;;;;;;;2.60;1.63;;;;;;;;;;5095693;28;20101;-60
2023/07/28 08:35:13;;;;;;;4.82;1.50;;;;;;;;;;5098688;28;20571;-58
2023/07/28 08:37:42;;;;;;;3.30;1.80;;;;;;;;;;5098815;28;20117;-58
2023/07/28 08:40:13;;;;;;;2.95;1.50;;;;;;;;;;5100385;28;20043;-58
2023/07/28 08:42:41;;;;;;;3.15;1.80;;;;;;;;;;5102808;28;20405;-59
2023/07/28 08:45:10;;;;;;;4.25;1.48;;;;;;;;;;5106050;28;20039;-61
2023/07/28 08:47:39;;;;;;;3.65;1.80;;;;;;;;;;5097969;28;20124;-59
2023/07/28 08:50:08;;;;;;;2.30;1.50;;;;;;;;;;5097334;28;20328;-60
2023/07/28 08:52:36;;;;;;;3.83;1.88;;;;;;;;;;5100336;28;20055;-63
2023/07/28 08:55:05;;;;;;;3.45;1.80;;;;;;;;;;5094963;28;20042;-61
2023/07/28 08:57:35;;;;;;;2.17;1.45;;;;;;;;;;5100572;28;20051;-60
2023/07/28 09:00:09;;;;;;;4.07;1.70;;;;;;;;;;5097614;28;20047;-62
2023/07/28 09:02:37;;;;;;;3.60;1.30;;;;;;;;;;5096056;28;20078;-59
2023/07/28 09:05:06;;;;;;;2.67;1.35;;;;;;;;;;5096686;28;20298;-59
2023/07/28 09:07:38;;;;;;;2.78;1.40;;;;;;;;;;5095691;28;20489;-60
2023/07/28 09:10:07;;;;;;;4.78;1.63;;;;;;;;;;5100874;28;20048;-59
2023/07/28 09:12:45;;;;;;;3.72;1.55;;;;;;;;;;5099318;28;20165;-59
2023/07/28 09:15:14;;;;;;;2.85;1.52;;;;;;;;;;5094946;28;20056;-60
2023/07/28 09:17:43;;;;;;;3.50;1.77;;;;;;;;;;5098590;28;20058;-59
2023/07/28 09:20:14;;;;;;;3.15;1.58;;;;;;;;;;5092076;28;20327;-60
2023/07/28 09:22:44;;;;;;;2.70;1.50;;;;;;;;;;5098762;28;20039;-59
2023/07/28 09:25:13;;;;;;;5.30;1.50;;;;;;;;;;5092273;28;20052;-59
2023/07/28 09:27:50;;;;;;;3.80;1.70;;;;;;;;;;5099782;28;20393;-61
2023/07/28 09:30:19;;;;;;;2.58;1.58;;;;;;;;;;5096050;28;20047;-60
2023/07/28 09:32:49;;;;;;;4.53;1.65;;;;;;;;;;5099454;28;20052;-63
2023/07/28 09:35:18;;;;;;;2.65;1.70;;;;;;;;;;5096808;28;20047;-61
2023/07/28 09:37:48;;;;;;;3.53;1.70;;;;;;;;;;5095728;28;20051;-64
2023/07/28 09:40:18;;;;;;;2.53;1.70;;;;;;;;;;5098080;28;20565;-60
2023/07/28 09:42:50;;;;;;;4.45;1.73;;;;;;;;;;5096913;28;20052;-61
2023/07/28 09:45:23;;;;;;;4.18;1.58;;;;;;;;;;5098792;28;20048;-60
2023/07/28 09:47:56;;;;;;;3.35;2.10;;;;;;;;;;5098850;28;20056;-60
2023/07/28 09:50:25;;;;;;;3.35;1.60;;;;;;;;;;5098132;28;20067;-61
2023/07/28 09:52:55;;;;;;;3.22;1.52;;;;;;;;;;5095603;28;20050;-62
2023/07/28 09:55:23;;;;;;;4.35;1.50;;;;;;;;;;5099702;28;20485;-60
2023/07/28 09:57:54;;;;;;;4.28;1.80;;;;;;;;;;5099427;28;20070;-59
2023/07/28 10:00:23;;;;;;;3.45;1.60;;;;;;;;;;5093732;28;20040;-57
2023/07/28 10:02:52;;;;;;;4.65;1.90;;;;;;;;;;5095849;28;20109;-59
2023/07/28 10:05:20;;;;;;;3.88;1.73;;;;;;;;;;5096680;28;20477;-58
2023/07/28 10:07:50;;;;;;;6.88;1.73;;;;;;;;;;5098364;28;20044;-58
2023/07/28 10:10:18;;;;;;;3.40;1.90;;;;;;;;;;5100299;28;20093;-58
2023/07/28 10:12:48;;;;;;;3.78;1.70;;;;;;;;;;5097762;28;20059;-59
2023/07/28 10:15:18;;;;;;;3.67;1.42;;;;;;;;;;5095288;28;20052;-60
2023/07/28 10:17:48;;;;;;;4.72;1.50;;;;;;;;;;5097146;28;20089;-60
2023/07/28 10:20:29;;;;;;;2.67;1.45;;;;;;;;;;5099032;28;20411;-61
2023/07/28 10:23:05;;;;;;;4.72;1.80;;;;;;;;;;5102210;28;20085;-59
2023/07/28 10:25:37;;;;;;;3.55;2.08;;;;;;;;;;5099642;28;20066;-59
2023/07/28 10:28:06;;;;;;;4.88;2.22;;;;;;;;;;5100622;28;20051;-58
2023/07/28 10:30:52;;;;;;;3.00;1.73;;;;;;;;;;5104835;28;20389;-59
2023/07/28 10:33:27;;;;;;;4.38;2.00;;;;;;;;;;5100295;28;20475;-63
2023/07/28 10:35:56;;;;;;;3.80;2.10;;;;;;;;;;5100907;28;20065;-58
2023/07/28 10:38:32;;;;;;;3.35;1.45;;;;;;;;;;5097145;28;20063;-59
2023/07/28 10:41:07;;;;;;;3.05;1.80;;;;;;;;;;5101922;28;20052;-60
2023/07/28 10:43:36;;;;;;;4.80;1.55;;;;;;;;;;5105700;28;20101;-60
2023/07/28 10:46:07;;;;;;;4.03;1.80;;;;;;;;;;5104638;28;20357;-59
2023/07/28 10:48:36;;;;;;;4.03;1.70;;;;;;;;;;5099686;28;20067;-60
2023/07/28 10:51:05;;;;;;;2.08;1.48;;;;;;;;;;5101312;28;20048;-59
2023/07/28 10:53:34;;;;;;;3.33;1.55;;;;;;;;;;5098567;28;20040;-59
2023/07/28 10:56:04;;;;;;;3.78;1.75;;;;;;;;;;5103064;28;20108;-59
2023/07/28 10:58:33;;;;;;;2.30;1.48;;;;;;;;;;5099785;28;20047;-60
2023/07/28 11:01:01;;;;;;;3.22;1.50;;;;;;;;;;5105635;28;21323;-59
2023/07/28 11:03:31;;;;;;;3.42;1.30;;;;;;;;;;5104486;28;20047;-59
2023/07/28 11:06:01;;;;;;;3.20;1.70;;;;;;;;;;5098768;28;20066;-59
2023/07/28 11:08:30;;;;;;;3.03;1.77;;;;;;;;;;5095597;28;20051;-60
2023/07/28 11:10:58;;;;;;;3.15;1.92;;;;;;;;;;5104385;28;20120;-59
2023/07/28 11:13:27;;;;;;;3.33;1.88;;;;;;;;;;5097697;28;20043;-59
2023/07/28 11:16:10;;;;;;;9.23;1.95;;;;;;;;;;5105588;28;20054;-59
2023/07/28 11:18:40;;;;;;;2.90;1.63;;;;;;;;;;5101259;28;20102;-60
2023/07/28 11:21:08;;;;;;;3.05;1.70;;;;;;;;;;5101497;28;20101;-61
2023/07/28 11:23:37;;;;;;;2.38;1.60;;;;;;;;;;5100023;28;20040;-59
2023/07/28 11:26:11;;;;;;;2.42;1.65;;;;;;;;;;5102125;28;20048;-59
2023/07/28 11:28:39;;;;;;;2.40;1.40;;;;;;;;;;5102606;28;20047;-58
2023/07/28 11:31:09;;;;;;;2.25;1.45;;;;;;;;;;5099334;28;20492;-60
2023/07/28 11:33:38;;;;;;;3.85;2.03;;;;;;;;;;5105986;28;20051;-61
2023/07/28 11:36:08;;;;;;;4.68;2.10;;;;;;;;;;5104355;28;20097;-59
2023/07/28 11:38:37;;;;;;;4.13;2.30;;;;;;;;;;5103197;28;20048;-59
2023/07/28 11:41:05;;;;;;;3.28;1.70;;;;;;;;;;5105001;28;20043;-63
2023/07/28 11:43:34;;;;;;;3.53;1.60;;;;;;;;;;5105832;28;20089;-59
2023/07/28 11:46:02;;;;;;;4.55;1.98;;;;;;;;;;5100864;28;20055;-59
2023/07/28 11:48:32;;;;;;;4.13;1.60;;;;;;;;;;5101633;28;20102;-59
2023/07/28 11:51:01;;;;;;;3.17;1.90;;;;;;;;;;5096526;28;20560;-59
2023/07/28 11:53:34;;;;;;;3.22;1.83;;;;;;;;;;5101569;28;20051;-60
2023/07/28 11:56:02;;;;;;;2.97;1.77;;;;;;;;;;5099529;28;20055;-59
2023/07/28 11:58:32;;;;;;;2.88;1.80;;;;;;;;;;5103173;28;20082;-61
2023/07/28 12:01:00;;;;;;;2.80;1.73;;;;;;;;;;5105218;28;20039;-58
2023/07/28 12:03:31;;;;;;;4.07;1.80;;;;;;;;;;5102031;28;20120;-59
2023/07/28 12:06:01;;;;;;;4.05;1.60;;;;;;;;;;5104200;28;20113;-65
2023/07/28 12:08:36;;;;;;;1.85;1.40;;;;;;;;;;5103854;28;20165;-61
2023/07/28 12:11:05;;;;;;;4.70;1.85;;;;;;;;;;5100054;28;20051;-62
2023/07/28 12:13:49;;;;;;;1.95;1.30;;;;;;;;;;5101164;28;20101;-60
2023/07/28 12:16:33;;;;;;;2.92;1.65;;;;;;;;;;5091166;28;20080;-63
2023/07/28 12:19:04;;;;;;;3.35;1.75;;;;;;;;;;5103111;28;20051;-59
2023/07/28 12:21:33;;;;;;;3.75;2.03;;;;;;;;;;5104254;28;20126;-60
2023/07/28 12:24:03;;;;;;;2.65;1.77;;;;;;;;;;5100117;28;20036;-59
2023/07/28 12:26:36;;;;;;;6.87;2.00;;;;;;;;;;5098204;28;20051;-65
2023/07/28 12:29:08;;;;;;;2.70;1.42;;;;;;;;;;5105518;28;20043;-61
2023/07/28 12:31:39;;;;;;;3.25;1.60;;;;;;;;;;5101352;28;20439;-61
2023/07/28 12:34:11;;;;;;;5.88;1.88;;;;;;;;;;5098834;28;20429;-59
2023/07/28 12:36:52;;;;;;;3.05;1.67;;;;;;;;;;5100154;28;20070;-60
2023/07/28 12:39:24;;;;;;;4.68;1.83;;;;;;;;;;5102360;27;20582;-64
2023/07/28 12:41:55;;;;;;;5.70;1.80;;;;;;;;;;5097274;28;20055;-64
2023/07/28 12:44:27;;;;;;;3.08;1.77;;;;;;;;;;5099915;28;20108;-61
2023/07/28 12:46:58;;;;;;;2.47;1.65;;;;;;;;;;5099349;28;20052;-60
2023/07/28 12:49:29;;;;;;;2.42;1.50;;;;;;;;;;5101496;28;20070;-59
2023/07/28 12:51:57;;;;;;;4.22;2.00;;;;;;;;;;5103468;27;20055;-59
2023/07/28 12:54:27;;;;;;;5.20;2.22;;;;;;;;;;5101721;28;20500;-62
2023/07/28 12:56:56;;;;;;;3.65;1.58;;;;;;;;;;5104118;28;20511;-58
2023/07/28 12:59:28;;;;;;;3.35;1.80;;;;;;;;;;5105636;27;20514;-61
2023/07/28 13:01:57;;;;;;;5.82;1.75;;;;;;;;;;5105256;27;20450;-60
2023/07/28 13:04:25;;;;;;;3.60;1.77;;;;;;;;;;5105981;27;20062;-61
2023/07/28 13:06:54;;;;;;;4.38;1.60;;;;;;;;;;5105188;27;20912;-61
2023/07/28 13:09:43;;;;;;;4.80;2.00;;;;;;;;;;5105323;27;20047;-60
2023/07/28 13:12:12;;;;;;;4.22;1.58;;;;;;;;;;5102343;28;20388;-61
2023/07/28 13:14:43;;;;;;;3.05;1.77;;;;;;;;;;5099675;28;20051;-61
2023/07/28 13:17:12;;;;;;;2.72;1.60;;;;;;;;;;5099841;28;20052;-60
2023/07/28 13:19:40;;;;;;;3.35;1.98;;;;;;;;;;5106786;28;20044;-60
2023/07/28 13:22:09;;;;;;;4.20;1.75;;;;;;;;;;5099188;28;20088;-59
2023/07/28 13:24:39;;;;;;;3.72;1.88;;;;;;;;;;5099072;28;20039;-59
2023/07/28 13:27:09;;;;;;;2.90;1.90;;;;;;;;;;5098185;28;20424;-59
2023/07/28 13:29:37;;;;;;;7.88;1.90;;;;;;;;;;5107177;28;20044;-60
2023/07/28 13:32:16;;;;;;;3.45;1.73;;;;;;;;;;5110489;27;20510;-60
2023/07/28 13:34:44;;;;;;;2.97;1.90;;;;;;;;;;5106341;27;20054;-60
2023/07/28 13:37:13;;;;;;;3.65;1.83;;;;;;;;;;5098485;28;20044;-61
2023/07/28 13:39:41;;;;;;;2.60;1.73;;;;;;;;;;5103545;28;20051;-60
2023/07/28 13:42:11;;;;;;;3.10;1.67;;;;;;;;;;5105280;28;20097;-59
2023/07/28 13:44:40;;;;;;;2.75;1.88;;;;;;;;;;5102408;28;20043;-60
2023/07/28 13:47:24;;;;;;;3.30;1.85;;;;;;;;;;5098466;28;20119;-60
2023/07/28 13:49:53;;;;;;;3.58;1.80;;;;;;;;;;5105391;28;20044;-61
2023/07/28 13:52:21;;;;;;;3.33;2.10;;;;;;;;;;5096699;28;20052;-62
2023/07/28 13:54:50;;;;;;;3.72;1.70;;;;;;;;;;5096627;28;20087;-59
2023/07/28 13:57:23;;;;;;;4.10;1.80;;;;;;;;;;5102464;28;20051;-60
2023/07/28 13:59:51;;;;;;;4.07;1.95;;;;;;;;;;5100685;28;20055;-61
2023/07/28 14:02:19;;;;;;;2.47;1.60;;;;;;;;;;5105977;28;20048;-62
2023/07/28 14:04:48;;;;;;;8.30;2.47;;;;;;;;;;5102197;28;20580;-61
2023/07/28 14:07:16;;;;;;;2.80;1.73;;;;;;;;;;5101820;28;20035;-59
2023/07/28 14:09:45;;;;;;;4.00;1.90;;;;;;;;;;5101936;28;20055;-59
2023/07/28 14:12:13;;;;;;;2.67;1.83;;;;;;;;;;5102909;28;20409;-59
2023/07/28 14:14:43;;;;;;;3.75;1.83;;;;;;;;;;5101172;28;20078;-61
2023/07/28 14:17:11;;;;;;;5.38;1.98;;;;;;;;;;5103404;28;20449;-59
2023/07/28 14:19:40;;;;;;;2.92;1.95;;;;;;;;;;5103142;28;20044;-60
2023/07/28 14:22:09;;;;;;;3.42;1.80;;;;;;;;;;5101027;28;20055;-59
2023/07/28 14:24:37;;;;;;;3.03;1.83;;;;;;;;;;5104315;28;20086;-62
2023/07/28 14:27:06;;;;;;;6.93;1.80;;;;;;;;;;5098011;28;20093;-60
2023/07/28 14:29:34;;;;;;;2.17;1.60;;;;;;;;;;5098998;28;20124;-59
2023/07/28 14:32:04;;;;;;;4.30;1.92;;;;;;;;;;5098546;28;20046;-59
2023/07/28 14:34:33;;;;;;;3.53;1.63;;;;;;;;;;5098455;28;20044;-59
2023/07/28 14:37:02;;;;;;;3.88;2.17;;;;;;;;;;5100590;28;20193;-59
2023/07/28 14:39:31;;;;;;;3.30;2.10;;;;;;;;;;5103947;28;20471;-61
2023/07/28 14:41:59;;;;;;;4.47;2.35;;;;;;;;;;5104935;28;20044;-60
2023/07/28 14:44:28;;;;;;;5.00;2.05;;;;;;;;;;5102821;28;20469;-61
2023/07/28 14:46:57;;;;;;;3.33;1.92;;;;;;;;;;5098239;28;20105;-60
2023/07/28 14:49:28;;;;;;;4.45;1.80;;;;;;;;;;5097922;28;20044;-58
2023/07/28 14:51:57;;;;;;;2.83;1.70;;;;;;;;;;5102843;28;20515;-60
2023/07/28 14:54:26;;;;;;;3.53;2.00;;;;;;;;;;5095536;28;20062;-64
2023/07/28 14:56:54;;;;;;;3.95;2.05;;;;;;;;;;5103737;28;20051;-59
2023/07/28 14:59:22;;;;;;;4.45;2.40;;;;;;;;;;5101924;28;20044;-64
2023/07/28 15:01:51;;;;;;;4.50;2.30;;;;;;;;;;5105464;28;20104;-59